createdAt,value
2023-07-23T00:08:39.150Z,14.01
2023-07-23T00:23:42.246Z,14.20
2023-07-23T00:38:45.402Z,14.02
2023-07-23T00:53:50.194Z,14.02
2023-07-23T01:08:56.760Z,13.95
2023-07-23T01:23:59.994Z,14.10
2023-07-23T01:39:03.411Z,14.49
2023-07-23T01:54:06.557Z,14.36
2023-07-23T02:09:09.738Z,14.13
2023-07-23T02:24:12.888Z,13.95
2023-07-23T02:39:16.138Z,13.59
2023-07-23T02:54:19.210Z,13.63
2023-07-23T03:09:22.666Z,13.73
2023-07-23T03:24:25.937Z,14.05
2023-07-23T03:39:29.076Z,14.67
2023-07-23T03:54:32.992Z,15.22
2023-07-23T04:09:36.615Z,15.65
2023-07-23T04:24:39.910Z,16.37
2023-07-23T04:39:43.237Z,16.78
2023-07-23T04:54:46.574Z,17.20
2023-07-23T05:09:50.259Z,17.31
2023-07-23T05:24:53.483Z,18.08
2023-07-23T05:39:56.709Z,18.93
2023-07-23T05:54:59.919Z,19.39
2023-07-23T06:10:03.940Z,19.53
2023-07-23T06:25:07.564Z,19.72
2023-07-23T06:40:11.113Z,20.01
2023-07-23T06:55:15.214Z,19.97
2023-07-23T07:10:18.716Z,20.55
2023-07-23T07:25:21.974Z,21.17
2023-07-23T07:40:25.186Z,21.88
2023-07-23T07:55:28.777Z,22.78
2023-07-23T08:10:34.746Z,23.55
2023-07-23T08:25:39.204Z,23.92
2023-07-23T08:40:44.885Z,24.15
2023-07-23T08:55:48.580Z,22.95
2023-07-23T09:10:51.892Z,22.20
2023-07-23T09:25:59.007Z,21.87
2023-07-23T09:41:02.620Z,21.94
2023-07-23T09:56:06.308Z,21.98
2023-07-23T10:11:14.272Z,21.98
2023-07-23T10:26:23.309Z,22.65
2023-07-23T10:54:04.254Z,26.04
2023-07-23T11:09:14.582Z,27.77
2023-07-23T11:24:19.682Z,27.88
2023-07-23T11:39:25.760Z,27.15
2023-07-23T11:54:29.088Z,26.24
2023-07-23T12:09:35.745Z,25.39
2023-07-23T12:24:39.957Z,24.99
2023-07-23T12:39:43.925Z,24.56
2023-07-23T12:54:47.232Z,24.45
2023-07-23T13:09:51.553Z,24.81
2023-07-23T13:24:54.892Z,25.30
2023-07-23T13:39:58.197Z,25.39
2023-07-23T13:55:04.785Z,25.46
2023-07-23T14:10:08.841Z,25.82
2023-07-23T14:25:12.558Z,25.74
2023-07-23T14:40:16.245Z,26.02
2023-07-23T14:55:23.404Z,25.76
2023-07-23T15:24:02.924Z,25.30
2023-07-23T15:39:06.381Z,25.23
2023-07-23T15:54:10.132Z,25.39
2023-07-23T16:09:13.762Z,25.28
2023-07-23T16:24:17.310Z,25.27
2023-07-23T16:39:22.286Z,24.94
2023-07-23T16:54:25.699Z,24.78
2023-07-23T17:09:29.013Z,24.57
2023-07-23T17:24:32.495Z,24.46
2023-07-23T17:39:35.956Z,24.22
2023-07-23T17:54:39.346Z,23.70
2023-07-23T18:09:42.954Z,23.28
2023-07-23T18:24:46.272Z,22.80
2023-07-23T18:39:49.433Z,22.59
2023-07-23T18:54:52.691Z,22.51
2023-07-23T19:09:58.373Z,22.07
2023-07-23T19:25:02.546Z,21.56
2023-07-23T19:40:06.576Z,21.22
2023-07-23T20:01:13.625Z,21.02
2023-07-23T20:16:18.635Z,20.82
2023-07-23T20:31:23.898Z,20.59
2023-07-23T20:46:28.478Z,20.54
2023-07-23T21:01:31.905Z,20.35
2023-07-23T21:16:35.194Z,20.21
2023-07-23T21:31:38.995Z,20.23
2023-07-23T21:46:42.334Z,20.23
2023-07-23T22:01:45.857Z,20.24
2023-07-23T22:16:49.140Z,20.23
2023-07-23T22:31:52.439Z,20.11
2023-07-23T22:46:56.185Z,20.07
2023-07-23T23:01:59.933Z,19.88
2023-07-23T23:17:03.687Z,19.30
2023-07-23T23:32:08.166Z,19.03
2023-07-23T23:47:11.764Z,18.55
